createdAt,value
2023-06-29T00:00:01.573Z,100434.22
2023-06-29T00:00:33.603Z,100439.53
2023-06-29T00:01:06.158Z,100444.50
2023-06-29T00:01:38.215Z,100442.69
2023-06-29T00:02:10.242Z,100443.66
2023-06-29T00:02:42.285Z,100444.31
2023-06-29T00:03:14.439Z,100439.00
2023-06-29T00:03:46.590Z,100442.81
2023-06-29T00:04:18.631Z,100438.69
2023-06-29T00:04:50.653Z,100444.00
2023-06-29T00:05:23.015Z,100437.66
2023-06-29T00:05:55.069Z,100437.50
2023-06-29T00:06:27.125Z,100436.34
2023-06-29T00:06:59.150Z,100436.03
2023-06-29T00:07:32.592Z,100432.56
2023-06-29T00:08:05.133Z,100431.38
2023-06-29T00:08:37.223Z,100438.22
2023-06-29T00:09:09.219Z,100436.34
2023-06-29T00:09:41.220Z,100440.88
2023-06-29T00:10:13.228Z,100445.84
2023-06-29T00:10:45.250Z,100439.38
2023-06-29T00:11:17.327Z,100443.00
2023-06-29T00:11:49.401Z,100443.00
2023-06-29T00:12:21.471Z,100442.03
2023-06-29T00:12:53.708Z,100439.84
2023-06-29T00:13:25.744Z,100439.84
2023-06-29T00:13:57.775Z,100447.84
2023-06-29T00:14:29.750Z,100444.03
2023-06-29T00:15:01.787Z,100444.19
2023-06-29T00:15:33.951Z,100439.72
2023-06-29T00:16:06.124Z,100445.84
2023-06-29T00:16:38.250Z,100439.72
2023-06-29T00:17:10.315Z,100439.72
2023-06-29T00:17:42.493Z,100444.53
2023-06-29T00:18:14.640Z,100439.22
2023-06-29T00:18:46.683Z,100437.41
2023-06-29T00:19:19.220Z,100436.88
2023-06-29T00:19:51.279Z,100440.22
2023-06-29T00:20:23.491Z,100435.53
2023-06-29T00:20:55.688Z,100432.09
2023-06-29T00:21:27.756Z,100432.09
2023-06-29T00:21:59.820Z,100433.56
2023-06-29T00:22:33.493Z,100435.38
2023-06-29T00:23:05.563Z,100438.72
2023-06-29T00:23:37.605Z,100437.56
2023-06-29T00:24:09.804Z,100431.06
2023-06-29T00:24:42.111Z,100430.22
2023-06-29T00:25:14.273Z,100437.41
2023-06-29T00:25:46.275Z,100434.53
2023-06-29T00:26:18.428Z,100434.72
2023-06-29T00:26:50.438Z,100435.03
2023-06-29T00:27:23.059Z,100433.56
2023-06-29T00:27:55.063Z,100424.25
2023-06-29T00:28:27.117Z,100439.81
2023-06-29T00:28:59.160Z,100436.03
2023-06-29T00:29:31.163Z,100435.19
2023-06-29T00:30:03.519Z,100436.84
2023-06-29T00:30:35.699Z,100433.16
2023-06-29T00:31:07.795Z,100436.00
2023-06-29T00:31:40.041Z,100436.66
2023-06-29T00:32:12.104Z,100431.53
2023-06-29T00:32:44.258Z,100431.69
2023-06-29T00:33:17.261Z,100434.34
2023-06-29T00:33:49.244Z,100435.81
2023-06-29T00:34:21.217Z,100438.47
2023-06-29T00:34:53.220Z,100433.66
2023-06-29T00:35:25.306Z,100437.16
2023-06-29T00:35:57.334Z,100436.03
2023-06-29T00:36:29.340Z,100431.38
2023-06-29T00:37:01.342Z,100440.03
2023-06-29T00:37:34.702Z,100444.16
2023-06-29T00:38:06.672Z,100437.03
2023-06-29T00:38:38.753Z,100434.53
2023-06-29T00:39:10.794Z,100436.88
2023-06-29T00:39:42.829Z,100441.03
2023-06-29T00:40:14.981Z,100436.19
2023-06-29T00:40:48.958Z,100445.84
2023-06-29T00:41:20.992Z,100441.34
2023-06-29T00:41:53.377Z,100443.31
2023-06-29T00:42:25.351Z,100444.16
2023-06-29T00:42:57.600Z,100442.50
2023-06-29T00:43:29.649Z,100442.81
2023-06-29T00:44:01.708Z,100439.53
2023-06-29T00:44:33.690Z,100433.88
2023-06-29T00:45:06.944Z,100432.88
2023-06-29T00:45:38.962Z,100439.19
2023-06-29T00:46:12.102Z,100434.03
2023-06-29T00:46:44.161Z,100437.16
2023-06-29T00:47:16.455Z,100437.16
2023-06-29T00:47:48.606Z,100437.00
2023-06-29T00:48:20.848Z,100435.53
2023-06-29T00:48:53.519Z,100434.19
2023-06-29T00:49:25.821Z,100433.16
2023-06-29T00:49:58.051Z,100439.28
2023-06-29T00:50:30.418Z,100442.28
2023-06-29T00:51:03.026Z,100449.72
2023-06-29T00:51:35.141Z,100440.41
2023-06-29T00:52:08.328Z,100439.56
2023-06-29T00:52:41.794Z,100447.38
2023-06-29T00:53:13.890Z,100445.72
2023-06-29T00:53:45.986Z,100443.22
2023-06-29T00:54:18.672Z,100446.88
2023-06-29T00:54:51.464Z,100441.72
2023-06-29T00:55:23.878Z,100446.66
2023-06-29T00:55:56.760Z,100440.84
2023-06-29T00:56:33.343Z,100439.66
2023-06-29T00:57:06.121Z,100440.00
2023-06-29T00:57:38.190Z,100439.34
2023-06-29T00:58:10.356Z,100435.84
2023-06-29T00:58:42.540Z,100441.47
2023-06-29T00:59:15.337Z,100435.16
2023-06-29T00:59:47.352Z,100432.34
2023-06-29T01:00:19.658Z,100436.19
2023-06-29T01:00:51.785Z,100430.34
2023-06-29T01:01:23.915Z,100439.97
2023-06-29T01:01:56.181Z,100439.31
2023-06-29T01:02:29.710Z,100436.78
2023-06-29T01:03:02.163Z,100433.00
2023-06-29T01:03:34.447Z,100432.00
2023-06-29T01:04:07.024Z,100426.69
2023-06-29T01:04:39.155Z,100427.03
2023-06-29T01:05:13.633Z,100422.91
2023-06-29T01:05:47.010Z,100426.56
2023-06-29T01:06:24.018Z,100416.13
2023-06-29T01:07:05.646Z,100425.59
2023-06-29T01:07:46.466Z,100417.44
2023-06-29T01:08:23.250Z,100423.44
2023-06-29T01:08:59.364Z,100424.47
2023-06-29T01:09:33.108Z,100418.81
2023-06-29T01:10:07.069Z,100417.84
2023-06-29T01:10:39.500Z,100415.53
2023-06-29T01:11:13.382Z,100421.16
2023-06-29T01:11:45.679Z,100422.03
2023-06-29T01:12:18.397Z,100418.41
2023-06-29T01:12:52.750Z,100411.13
2023-06-29T01:13:28.297Z,100418.41
2023-06-29T01:14:03.010Z,100418.25
2023-06-29T01:14:38.424Z,100417.44
2023-06-29T01:15:11.899Z,100414.78
2023-06-29T01:15:45.830Z,100417.25
2023-06-29T01:16:18.888Z,100418.06
2023-06-29T01:16:52.979Z,100414.78
2023-06-29T01:17:30.290Z,100415.75
2023-06-29T01:18:05.361Z,100413.09
2023-06-29T01:18:38.802Z,100419.25
2023-06-29T01:19:18.266Z,100421.91
2023-06-29T01:19:52.526Z,100412.94
2023-06-29T01:20:27.447Z,100415.75
2023-06-29T01:21:01.401Z,100420.72
2023-06-29T01:21:40.321Z,100424.72
2023-06-29T01:22:19.068Z,100416.72
2023-06-29T01:22:57.743Z,100421.69
2023-06-29T01:23:34.210Z,100427.97
2023-06-29T01:24:07.217Z,100423.00
2023-06-29T01:24:41.493Z,100412.16
2023-06-29T01:25:14.236Z,100423.63
2023-06-29T01:25:46.649Z,100431.22
2023-06-29T01:26:19.422Z,100418.28
2023-06-29T01:26:51.771Z,100424.56
2023-06-29T01:27:24.357Z,100425.75
2023-06-29T01:27:56.660Z,100423.41
2023-06-29T01:28:28.709Z,100424.25
2023-06-29T01:29:00.696Z,100422.41
2023-06-29T01:29:32.731Z,100423.94
2023-06-29T01:30:05.681Z,100428.25
2023-06-29T01:30:37.789Z,100420.59
2023-06-29T01:31:09.763Z,100423.41
2023-06-29T01:31:41.792Z,100419.94
2023-06-29T01:32:13.825Z,100418.94
2023-06-29T01:32:45.917Z,100426.41
2023-06-29T01:33:20.773Z,100416.41
2023-06-29T01:33:52.872Z,100411.09
2023-06-29T01:34:24.953Z,100415.56
2023-06-29T01:34:57.064Z,100419.38
2023-06-29T01:35:29.073Z,100417.88
2023-06-29T01:36:07.330Z,100414.38
2023-06-29T01:36:47.546Z,100414.19
2023-06-29T01:37:26.463Z,100421.50
2023-06-29T01:38:03.161Z,100404.53
2023-06-29T01:38:41.334Z,100417.00
2023-06-29T01:39:23.704Z,100417.31
2023-06-29T01:40:01.210Z,100414.66
2023-06-29T01:40:35.694Z,100422.81
2023-06-29T01:41:10.317Z,100415.97
2023-06-29T01:41:44.333Z,100417.66
2023-06-29T01:42:16.418Z,100414.66
2023-06-29T01:42:50.006Z,100413.19
2023-06-29T01:43:23.653Z,100415.50
2023-06-29T01:43:57.115Z,100414.66
2023-06-29T01:44:29.226Z,100412.19
2023-06-29T01:45:03.008Z,100410.34
2023-06-29T01:45:36.684Z,100409.19
2023-06-29T01:46:09.830Z,100409.69
2023-06-29T01:46:42.394Z,100408.00
2023-06-29T01:47:15.615Z,100408.00
2023-06-29T01:47:47.678Z,100407.41
2023-06-29T01:48:20.036Z,100412.38
2023-06-29T01:48:52.728Z,100412.22
2023-06-29T01:49:25.063Z,100409.72
2023-06-29T01:49:57.192Z,100411.72
2023-06-29T01:50:29.815Z,100425.28
2023-06-29T01:51:02.578Z,100419.47
2023-06-29T01:51:34.850Z,100416.34
2023-06-29T01:52:07.795Z,100417.59
2023-06-29T01:52:40.062Z,100416.16
2023-06-29T01:53:12.452Z,100423.28
2023-06-29T01:53:44.694Z,100420.97
2023-06-29T01:54:16.800Z,100420.63
2023-06-29T01:54:48.972Z,100426.91
2023-06-29T01:55:23.216Z,100426.25
2023-06-29T01:55:55.276Z,100421.78
2023-06-29T01:56:27.244Z,100425.22
2023-06-29T01:56:59.291Z,100427.59
2023-06-29T01:57:31.348Z,100429.41
2023-06-29T01:58:03.432Z,100425.22
2023-06-29T01:58:35.517Z,100427.75
2023-06-29T01:59:07.562Z,100430.25
2023-06-29T01:59:40.573Z,100426.59
2023-06-29T02:00:14.391Z,100430.91
2023-06-29T02:00:46.469Z,100428.56
2023-06-29T02:01:18.555Z,100427.75
2023-06-29T02:01:50.901Z,100428.72
2023-06-29T02:02:22.995Z,100434.72
2023-06-29T02:02:55.169Z,100428.41
2023-06-29T02:03:27.367Z,100430.75
2023-06-29T02:03:59.485Z,100423.47
2023-06-29T02:04:31.808Z,100428.94
2023-06-29T02:05:04.132Z,100422.44
2023-06-29T02:05:36.250Z,100428.75
2023-06-29T02:06:08.514Z,100428.63
2023-06-29T02:06:40.542Z,100438.25
2023-06-29T02:07:12.677Z,100428.81
2023-06-29T02:07:44.711Z,100427.97
2023-06-29T02:08:16.741Z,100430.97
2023-06-29T02:08:48.780Z,100430.00
2023-06-29T02:09:20.980Z,100422.03
2023-06-29T02:09:52.967Z,100420.88
2023-06-29T02:10:26.378Z,100428.50
2023-06-29T02:10:58.404Z,100427.72
2023-06-29T02:11:30.517Z,100430.69
2023-06-29T02:12:02.639Z,100427.72
2023-06-29T02:12:34.679Z,100431.03
2023-06-29T02:13:06.749Z,100430.72
2023-06-29T02:13:38.855Z,100432.25
2023-06-29T02:14:10.979Z,100427.09
2023-06-29T02:14:43.000Z,100434.91
2023-06-29T02:15:15.139Z,100434.91
2023-06-29T02:15:47.360Z,100427.09
2023-06-29T02:16:19.609Z,100433.38
2023-06-29T02:16:52.773Z,100433.22
2023-06-29T02:17:24.834Z,100437.69
2023-06-29T02:17:56.891Z,100427.59
2023-06-29T02:18:28.925Z,100435.22
2023-06-29T02:19:01.190Z,100429.25
2023-06-29T02:19:33.247Z,100439.41
2023-06-29T02:20:06.519Z,100436.41
2023-06-29T02:20:38.596Z,100435.25
2023-06-29T02:21:10.585Z,100429.47
2023-06-29T02:21:42.576Z,100432.78
2023-06-29T02:22:14.712Z,100424.53
2023-06-29T02:22:46.773Z,100433.16
2023-06-29T02:23:18.787Z,100425.38
2023-06-29T02:23:50.798Z,100433.84
2023-06-29T02:24:23.023Z,100430.19
2023-06-29T02:24:55.086Z,100434.34
2023-06-29T02:25:28.425Z,100428.19
2023-06-29T02:26:00.418Z,100424.72
2023-06-29T02:26:32.480Z,100433.66
2023-06-29T02:27:04.955Z,100431.19
2023-06-29T02:27:36.978Z,100434.66
2023-06-29T02:28:09.036Z,100429.19
2023-06-29T02:28:41.086Z,100432.53
2023-06-29T02:29:13.173Z,100437.66
2023-06-29T02:29:45.472Z,100431.69
2023-06-29T02:30:17.600Z,100433.34
2023-06-29T02:30:49.717Z,100430.50
2023-06-29T02:31:21.791Z,100429.38
2023-06-29T02:31:54.035Z,100428.53
2023-06-29T02:32:26.113Z,100425.06
2023-06-29T02:32:58.191Z,100421.56
2023-06-29T02:33:30.264Z,100422.06
2023-06-29T02:34:02.286Z,100429.88
2023-06-29T02:34:34.333Z,100424.22
2023-06-29T02:35:07.156Z,100420.22
2023-06-29T02:35:39.198Z,100432.69
2023-06-29T02:36:11.257Z,100427.22
2023-06-29T02:36:43.260Z,100422.41
2023-06-29T02:37:15.309Z,100422.25
2023-06-29T02:37:47.317Z,100423.59
2023-06-29T02:38:19.378Z,100423.75
2023-06-29T02:38:51.347Z,100430.03
2023-06-29T02:39:23.455Z,100419.09
2023-06-29T02:39:55.458Z,100418.44
2023-06-29T02:40:28.878Z,100422.44
2023-06-29T02:41:00.859Z,100416.63
2023-06-29T02:41:32.922Z,100425.44
2023-06-29T02:42:05.278Z,100421.59
2023-06-29T02:42:37.305Z,100417.28
2023-06-29T02:43:09.393Z,100413.47
2023-06-29T02:43:41.477Z,100419.94
2023-06-29T02:44:13.544Z,100420.44
2023-06-29T02:44:45.550Z,100427.41
2023-06-29T02:45:17.603Z,100426.78
2023-06-29T02:45:49.675Z,100417.13
2023-06-29T02:46:21.778Z,100420.63
2023-06-29T02:46:53.824Z,100420.13
2023-06-29T02:47:25.885Z,100417.97
2023-06-29T02:47:57.970Z,100416.63
2023-06-29T02:48:29.997Z,100416.63
2023-06-29T02:49:01.995Z,100416.78
2023-06-29T02:49:34.028Z,100422.75
2023-06-29T02:50:07.298Z,100417.78
2023-06-29T02:50:39.296Z,100407.84
2023-06-29T02:51:11.349Z,100419.47
2023-06-29T02:51:43.470Z,100416.94
2023-06-29T02:52:15.449Z,100421.63
2023-06-29T02:52:47.432Z,100418.47
2023-06-29T02:53:19.489Z,100415.97
2023-06-29T02:53:51.523Z,100418.47
2023-06-29T02:54:23.589Z,100414.81
2023-06-29T02:54:55.644Z,100417.63
2023-06-29T02:55:31.121Z,100411.47
2023-06-29T02:56:03.271Z,100413.81
2023-06-29T02:56:35.329Z,100406.00
2023-06-29T02:57:07.398Z,100405.19
2023-06-29T02:57:39.451Z,100397.22
2023-06-29T02:58:11.458Z,100401.19
2023-06-29T02:58:43.515Z,100406.84
2023-06-29T02:59:15.584Z,100408.97
2023-06-29T02:59:47.637Z,100400.69
2023-06-29T03:00:19.810Z,100403.34
2023-06-29T03:00:51.888Z,100398.34
2023-06-29T03:01:24.128Z,100405.00
2023-06-29T03:01:56.182Z,100408.66
2023-06-29T03:02:28.314Z,100407.16
2023-06-29T03:03:00.511Z,100403.50
2023-06-29T03:03:32.571Z,100405.34
2023-06-29T03:04:04.842Z,100407.84
2023-06-29T03:04:36.821Z,100407.84
2023-06-29T03:05:09.566Z,100397.84
2023-06-29T03:05:41.865Z,100402.34
2023-06-29T03:06:14.174Z,100408.16
2023-06-29T03:06:46.170Z,100407.16
2023-06-29T03:07:18.245Z,100401.69
2023-06-29T03:07:50.310Z,100399.50
2023-06-29T03:08:22.300Z,100404.31
2023-06-29T03:08:54.366Z,100406.28
2023-06-29T03:09:26.361Z,100403.63
2023-06-29T03:09:58.412Z,100407.31
2023-06-29T03:10:31.827Z,100408.94
2023-06-29T03:11:04.061Z,100404.63
2023-06-29T03:11:36.074Z,100402.31
2023-06-29T03:12:10.561Z,100403.13
2023-06-29T03:12:42.622Z,100398.81
2023-06-29T03:13:14.671Z,100408.28
2023-06-29T03:13:46.658Z,100408.28
2023-06-29T03:14:18.674Z,100410.75
2023-06-29T03:14:51.203Z,100407.94
2023-06-29T03:15:23.307Z,100405.94
2023-06-29T03:15:55.426Z,100408.78
2023-06-29T03:16:27.489Z,100410.13
2023-06-29T03:16:59.614Z,100412.09
2023-06-29T03:17:31.744Z,100414.44
2023-06-29T03:18:03.922Z,100413.25
2023-06-29T03:18:36.011Z,100416.41
2023-06-29T03:19:08.070Z,100411.56
2023-06-29T03:19:40.246Z,100414.91
2023-06-29T03:20:12.993Z,100421.72
2023-06-29T03:20:45.024Z,100417.84
2023-06-29T03:21:18.665Z,100415.56
2023-06-29T03:21:50.934Z,100416.38
2023-06-29T03:22:22.992Z,100411.06
2023-06-29T03:22:55.581Z,100417.72
2023-06-29T03:23:27.583Z,100414.59
2023-06-29T03:23:59.648Z,100414.25
2023-06-29T03:24:31.731Z,100413.13
2023-06-29T03:25:04.068Z,100412.78
2023-06-29T03:25:37.510Z,100413.91
2023-06-29T03:26:09.494Z,100414.09
2023-06-29T03:26:41.536Z,100418.09
2023-06-29T03:27:13.616Z,100418.59
2023-06-29T03:27:45.617Z,100415.44
2023-06-29T03:28:17.634Z,100409.63
2023-06-29T03:28:49.602Z,100416.44
2023-06-29T03:29:21.618Z,100417.44
2023-06-29T03:29:54.125Z,100414.97
2023-06-29T03:30:26.139Z,100409.16
2023-06-29T03:30:58.228Z,100419.28
2023-06-29T03:31:30.301Z,100413.78
2023-06-29T03:32:02.435Z,100420.44
2023-06-29T03:32:34.663Z,100418.63
2023-06-29T03:33:06.817Z,100411.97
2023-06-29T03:33:38.818Z,100416.16
2023-06-29T03:34:10.816Z,100416.31
2023-06-29T03:34:42.882Z,100417.28
2023-06-29T03:35:15.031Z,100417.28
2023-06-29T03:35:47.047Z,100420.94
2023-06-29T03:36:19.048Z,100417.63
2023-06-29T03:36:51.077Z,100421.28
2023-06-29T03:37:23.127Z,100415.97
2023-06-29T03:37:55.186Z,100418.63
2023-06-29T03:38:27.217Z,100413.31
2023-06-29T03:38:59.221Z,100413.31
2023-06-29T03:39:31.266Z,100420.63
2023-06-29T03:40:03.420Z,100413.31
2023-06-29T03:40:36.956Z,100411.63
2023-06-29T03:41:08.945Z,100421.78
2023-06-29T03:41:40.996Z,100412.47
2023-06-29T03:42:13.018Z,100420.94
2023-06-29T03:42:45.033Z,100414.63
2023-06-29T03:43:17.116Z,100417.13
2023-06-29T03:43:49.304Z,100417.13
2023-06-29T03:44:21.278Z,100417.97
2023-06-29T03:44:53.285Z,100415.31
2023-06-29T03:45:25.288Z,100417.28
2023-06-29T03:45:58.812Z,100427.28
2023-06-29T03:46:30.827Z,100420.44
2023-06-29T03:47:02.813Z,100427.75
2023-06-29T03:47:34.916Z,100423.28
2023-06-29T03:48:07.228Z,100422.78
2023-06-29T03:48:39.360Z,100419.09
2023-06-29T03:49:11.484Z,100424.94
2023-06-29T03:49:43.523Z,100426.56
2023-06-29T03:50:15.562Z,100434.53
2023-06-29T03:51:19.667Z,100429.09
2023-06-29T03:51:51.712Z,100429.25
2023-06-29T03:52:23.703Z,100426.09
2023-06-29T03:52:55.791Z,100426.94
2023-06-29T03:53:27.834Z,100420.13
2023-06-29T03:53:59.873Z,100422.44
2023-06-29T03:54:31.955Z,100427.41
2023-06-29T03:55:04.485Z,100430.06
2023-06-29T03:55:37.856Z,100432.41
2023-06-29T03:56:09.989Z,100433.72
2023-06-29T03:56:42.012Z,100422.78
2023-06-29T03:57:14.113Z,100426.94
2023-06-29T03:57:46.131Z,100425.94
2023-06-29T03:58:18.226Z,100432.09
2023-06-29T03:58:50.204Z,100424.13
2023-06-29T03:59:22.221Z,100425.75
2023-06-29T03:59:54.202Z,100426.59
2023-06-29T04:00:26.616Z,100416.31
2023-06-29T04:00:58.752Z,100427.09
2023-06-29T04:01:30.799Z,100425.59
2023-06-29T04:02:02.953Z,100426.44
2023-06-29T04:02:35.109Z,100428.75
2023-06-29T04:03:07.307Z,100430.41
2023-06-29T04:03:39.833Z,100429.25
2023-06-29T04:04:11.971Z,100432.59
2023-06-29T04:04:43.974Z,100424.63
2023-06-29T04:05:16.245Z,100417.44
2023-06-29T04:05:48.275Z,100420.78
2023-06-29T04:06:20.309Z,100424.28
2023-06-29T04:06:52.372Z,100424.75
2023-06-29T04:07:24.432Z,100423.44
2023-06-29T04:07:56.576Z,100433.72
2023-06-29T04:08:28.632Z,100433.56
2023-06-29T04:09:00.635Z,100418.63
2023-06-29T04:09:32.644Z,100424.75
2023-06-29T04:10:05.242Z,100430.91
2023-06-29T04:10:38.658Z,100428.06
2023-06-29T04:11:12.483Z,100418.13
2023-06-29T04:11:44.744Z,100429.25
2023-06-29T04:12:16.731Z,100422.94
2023-06-29T04:12:48.744Z,100428.91
2023-06-29T04:13:20.736Z,100432.56
2023-06-29T04:13:52.759Z,100435.03
2023-06-29T04:14:24.768Z,100438.38
2023-06-29T04:14:56.780Z,100437.06
2023-06-29T04:15:28.861Z,100436.72
2023-06-29T04:16:00.883Z,100435.53
2023-06-29T04:16:33.756Z,100437.19
2023-06-29T04:17:05.827Z,100433.22
2023-06-29T04:17:38.059Z,100431.22
2023-06-29T04:18:10.129Z,100438.56
2023-06-29T04:18:42.157Z,100431.41
2023-06-29T04:19:16.195Z,100441.06
2023-06-29T04:19:49.119Z,100435.75
2023-06-29T04:20:21.117Z,100431.91
2023-06-29T04:20:53.877Z,100436.22
2023-06-29T04:21:25.868Z,100430.72
2023-06-29T04:21:57.849Z,100429.09
2023-06-29T04:22:29.928Z,100428.88
2023-06-29T04:23:01.906Z,100437.69
2023-06-29T04:23:34.032Z,100430.41
2023-06-29T04:24:06.609Z,100425.88
2023-06-29T04:24:38.664Z,100432.88
2023-06-29T04:25:11.303Z,100434.06
2023-06-29T04:25:44.962Z,100424.06
2023-06-29T04:26:17.148Z,100434.69
2023-06-29T04:26:49.175Z,100428.06
2023-06-29T04:27:21.223Z,100422.44
2023-06-29T04:27:53.340Z,100426.94
2023-06-29T04:28:25.327Z,100430.72
2023-06-29T04:29:01.656Z,100434.06
2023-06-29T04:29:33.693Z,100435.53
2023-06-29T04:30:06.795Z,100426.41
2023-06-29T04:30:41.051Z,100427.56
2023-06-29T04:31:13.168Z,100431.03
2023-06-29T04:31:45.281Z,100428.38
2023-06-29T04:32:17.392Z,100433.72
2023-06-29T04:32:49.548Z,100434.53
2023-06-29T04:33:21.802Z,100431.03
2023-06-29T04:33:53.777Z,100433.72
2023-06-29T04:34:25.809Z,100428.38
2023-06-29T04:34:57.880Z,100436.03
2023-06-29T04:35:29.894Z,100432.38
2023-06-29T04:36:01.903Z,100434.19
2023-06-29T04:36:33.986Z,100435.03
2023-06-29T04:37:06.526Z,100430.19
2023-06-29T04:37:39.581Z,100436.34
2023-06-29T04:38:12.473Z,100426.69
2023-06-29T04:38:44.492Z,100435.34
2023-06-29T04:39:17.083Z,100428.84
2023-06-29T04:39:49.162Z,100423.53
2023-06-29T04:40:21.186Z,100423.16
2023-06-29T04:40:54.989Z,100416.53
2023-06-29T04:41:27.299Z,100427.31
2023-06-29T04:41:59.278Z,100424.97
2023-06-29T04:42:31.307Z,100423.59
2023-06-29T04:43:03.576Z,100428.63
2023-06-29T04:43:35.623Z,100422.09
2023-06-29T04:44:08.115Z,100427.75
2023-06-29T04:44:40.129Z,100427.88
2023-06-29T04:45:16.398Z,100414.41
2023-06-29T04:45:48.375Z,100423.81
2023-06-29T04:46:20.566Z,100425.66
2023-06-29T04:46:52.624Z,100423.47
2023-06-29T04:47:24.685Z,100412.50
2023-06-29T04:47:56.805Z,100421.59
2023-06-29T04:48:28.907Z,100419.56
2023-06-29T04:49:00.918Z,100409.91
2023-06-29T04:49:33.369Z,100415.88
2023-06-29T04:50:06.501Z,100410.41
2023-06-29T04:50:38.595Z,100403.25
2023-06-29T04:51:10.626Z,100408.69
2023-06-29T04:51:42.647Z,100401.16
2023-06-29T04:52:14.640Z,100404.66
2023-06-29T04:52:46.639Z,100404.50
2023-06-29T04:53:18.639Z,100402.31
2023-06-29T04:53:50.592Z,100410.78
2023-06-29T04:54:22.632Z,100407.13
2023-06-29T04:54:54.699Z,100411.41
2023-06-29T04:55:27.122Z,100400.41
2023-06-29T04:56:00.749Z,100408.69
2023-06-29T04:56:32.956Z,100403.19
2023-06-29T04:57:05.441Z,100405.03
2023-06-29T04:57:37.571Z,100406.53
2023-06-29T04:58:09.605Z,100397.34
2023-06-29T04:58:41.613Z,100408.81
2023-06-29T04:59:13.621Z,100396.81
2023-06-29T04:59:45.593Z,100401.13
2023-06-29T05:00:18.499Z,100399.94
2023-06-29T05:00:51.084Z,100400.41
2023-06-29T05:01:23.148Z,100403.06
2023-06-29T05:01:55.643Z,100406.19
2023-06-29T05:02:27.840Z,100402.53
2023-06-29T05:02:59.996Z,100400.69
2023-06-29T05:03:32.144Z,100396.66
2023-06-29T05:04:04.244Z,100403.47
2023-06-29T05:04:36.215Z,100405.13
2023-06-29T05:05:09.390Z,100401.25
2023-06-29T05:05:41.449Z,100403.56
2023-06-29T05:06:13.752Z,100399.91
2023-06-29T05:06:45.785Z,100396.84
2023-06-29T05:07:18.196Z,100401.66
2023-06-29T05:07:50.389Z,100409.31
2023-06-29T05:08:22.473Z,100403.59
2023-06-29T05:08:54.929Z,100398.06
2023-06-29T05:09:26.911Z,100398.06
2023-06-29T05:09:58.898Z,100391.56
2023-06-29T05:10:30.940Z,100399.81
2023-06-29T05:11:04.581Z,100400.50
2023-06-29T05:11:36.708Z,100392.31
2023-06-29T05:12:10.951Z,100401.66
2023-06-29T05:12:42.943Z,100388.09
2023-06-29T05:13:15.205Z,100389.41
2023-06-29T05:13:47.241Z,100389.84
2023-06-29T05:14:19.259Z,100394.84
2023-06-29T05:14:51.292Z,100397.97
2023-06-29T05:15:23.344Z,100398.59
2023-06-29T05:15:55.356Z,100396.75
2023-06-29T05:16:27.394Z,100400.91
2023-06-29T05:16:59.791Z,100397.44
2023-06-29T05:17:33.709Z,100405.59
2023-06-29T05:18:07.472Z,100398.88
2023-06-29T05:18:39.447Z,100405.50
2023-06-29T05:19:11.500Z,100403.47
2023-06-29T05:19:43.529Z,100394.63
2023-06-29T05:20:16.101Z,100407.19
2023-06-29T05:20:48.088Z,100403.47
2023-06-29T05:21:20.125Z,100407.63
2023-06-29T05:21:52.209Z,100401.25
2023-06-29T05:22:24.225Z,100402.53
2023-06-29T05:22:56.221Z,100409.09
2023-06-29T05:23:28.283Z,100411.22
2023-06-29T05:24:00.361Z,100407.34
2023-06-29T05:24:32.362Z,100407.16
2023-06-29T05:25:05.255Z,100401.06
2023-06-29T05:25:37.315Z,100408.06
2023-06-29T05:26:10.671Z,100397.78
2023-06-29T05:26:42.739Z,100408.44
2023-06-29T05:27:14.743Z,100410.13
2023-06-29T05:27:57.961Z,100406.22
2023-06-29T05:28:30.036Z,100403.19
2023-06-29T05:29:05.618Z,100412.47
2023-06-29T05:29:38.592Z,100415.88
2023-06-29T05:30:11.832Z,100407.88
2023-06-29T05:30:43.812Z,100411.19
2023-06-29T05:31:16.702Z,100412.19
2023-06-29T05:31:48.844Z,100416.06
2023-06-29T05:32:21.121Z,100407.03
2023-06-29T05:32:53.330Z,100405.19
2023-06-29T05:33:25.401Z,100409.97
2023-06-29T05:33:57.456Z,100404.09
2023-06-29T05:34:29.455Z,100406.38
2023-06-29T05:35:07.053Z,100414.00
2023-06-29T05:35:39.067Z,100405.38
2023-06-29T05:36:11.140Z,100403.06
2023-06-29T05:36:43.230Z,100406.81
2023-06-29T05:37:15.237Z,100392.91
2023-06-29T05:37:47.983Z,100395.03
2023-06-29T05:38:20.074Z,100402.84
2023-06-29T05:38:52.123Z,100403.78
2023-06-29T05:39:24.177Z,100410.69
2023-06-29T05:39:56.265Z,100410.50
2023-06-29T05:40:28.340Z,100396.13
2023-06-29T05:41:01.985Z,100392.06
2023-06-29T05:41:36.478Z,100408.44
2023-06-29T05:42:08.889Z,100399.81
2023-06-29T05:42:41.277Z,100393.47
2023-06-29T05:43:13.326Z,100397.69
2023-06-29T05:43:45.397Z,100388.00
2023-06-29T05:44:17.898Z,100400.91
2023-06-29T05:44:49.921Z,100400.34
2023-06-29T05:45:22.101Z,100401.63
2023-06-29T05:45:54.152Z,100400.00
2023-06-29T05:46:26.254Z,100400.41
2023-06-29T05:46:58.461Z,100396.97
2023-06-29T05:47:30.496Z,100402.81
2023-06-29T05:48:02.520Z,100404.22
2023-06-29T05:48:34.678Z,100403.91
2023-06-29T05:49:06.674Z,100396.31
2023-06-29T05:49:38.712Z,100406.22
2023-06-29T05:50:11.126Z,100408.72
2023-06-29T05:50:43.412Z,100408.34
2023-06-29T05:51:15.680Z,100404.25
2023-06-29T05:51:47.728Z,100406.81
2023-06-29T05:52:19.866Z,100399.19
2023-06-29T05:52:51.881Z,100411.78
2023-06-29T05:53:23.900Z,100406.50
2023-06-29T05:53:56.769Z,100415.53
2023-06-29T05:54:28.807Z,100408.53
2023-06-29T05:55:00.809Z,100408.34
2023-06-29T05:55:32.875Z,100407.75
2023-06-29T05:56:05.029Z,100408.78
2023-06-29T05:56:38.450Z,100406.81
2023-06-29T05:57:10.497Z,100409.34
2023-06-29T05:57:42.642Z,100419.50
2023-06-29T05:58:14.757Z,100412.53
2023-06-29T05:58:47.078Z,100409.34
2023-06-29T05:59:19.241Z,100398.81
2023-06-29T05:59:51.208Z,100404.03
2023-06-29T06:00:23.670Z,100407.31
2023-06-29T06:00:55.670Z,100408.13
2023-06-29T06:01:27.732Z,100407.69
2023-06-29T06:01:59.773Z,100406.97
2023-06-29T06:02:31.873Z,100408.44
2023-06-29T06:03:04.049Z,100407.63
2023-06-29T06:03:36.172Z,100400.84
2023-06-29T06:04:08.820Z,100399.78
2023-06-29T06:04:41.055Z,100407.91
2023-06-29T06:05:13.150Z,100402.00
2023-06-29T06:05:45.230Z,100397.28
2023-06-29T06:06:17.265Z,100405.31
2023-06-29T06:06:49.363Z,100404.13
2023-06-29T06:07:28.922Z,100401.88
2023-06-29T06:08:01.033Z,100407.06
2023-06-29T06:08:33.197Z,100403.13
2023-06-29T06:09:05.193Z,100404.78
2023-06-29T06:09:37.216Z,100409.69
2023-06-29T06:10:10.085Z,100401.91
2023-06-29T06:10:42.280Z,100403.75
2023-06-29T06:11:14.526Z,100406.94
2023-06-29T06:11:47.919Z,100407.75